Weather at Rimatara Airport

Public forecast

Using degrees Celsius for public forecast. Weather courtesy of forecast.io.

Closest aviation weather report (METAR) to Rimatara Airport

Closest report is Mauke Airport, 294.8 nm (546.0 km) WNW. Retrieved 2021/10/19 13:00 UTC (1 hour ago):

NCMK 191300Z AUTO 09004KT //// ////// 24/// Q1014

Closest aviation forecast (TAF) to Rimatara Airport

Closest forecast is Rarotonga International Airport, 399.3 nm (739.4 km) W. Retrieved 2021/10/19 12:00 UTC (2 hours ago):

TAF NCRG 191103Z 1912/2012 18005KT 9999 BKN035